Time;durP1;ratioP1;P1;durP2;ratioP2;P2;SDS_P1;SDS_P2;PMS_P1;PMS_P2;Temp;Humidity;BMP_temperature;BMP_pressure;BME280_temperature;BME280_humidity;BME280_pressure;Samples;Min_cycle;Max_cycle;Signal;HPM_P1;HPM_P2
2021/03/27 00:00:15;;;;;;;33.70;20.95;;;10.80;53.20;;;;;;5014154;28;20064;-71
2021/03/27 00:03:00;;;;;;;36.95;21.33;;;10.70;53.40;;;;;;5014124;28;20077;-71
2021/03/27 00:05:37;;;;;;;35.30;21.25;;;10.70;53.40;;;;;;5013833;28;20057;-71
2021/03/27 00:08:08;;;;;;;39.85;21.02;;;10.70;53.50;;;;;;5013795;28;20022;-69
2021/03/27 00:10:43;;;;;;;39.63;20.65;;;10.60;53.60;;;;;;5013765;28;20084;-70
2021/03/27 00:13:28;;;;;;;;;;;10.60;53.70;;;;;;5013082;28;20025;-70
2021/03/27 00:16:09;;;;;;;38.03;20.73;;;10.60;53.40;;;;;;5013813;28;19905;-71
2021/03/27 00:19:14;;;;;;;40.92;21.40;;;10.60;53.40;;;;;;5013584;28;20026;-71
2021/03/27 00:21:45;;;;;;;36.38;20.13;;;10.60;53.80;;;;;;4972596;28;20034;-71
2021/03/27 00:24:17;;;;;;;41.47;21.70;;;10.60;53.80;;;;;;5008122;28;20044;-71
2021/03/27 00:26:46;;;;;;;41.55;22.30;;;10.60;54.00;;;;;;5013719;28;20026;-70
2021/03/27 00:29:34;;;;;;;38.53;22.10;;;10.60;54.20;;;;;;5013455;28;20109;-70
2021/03/27 00:32:08;;;;;;;41.63;20.95;;;10.50;54.60;;;;;;5013962;28;20468;-70
2021/03/27 00:34:41;;;;;;;37.53;20.83;;;10.50;54.60;;;;;;5013676;28;20128;-69
2021/03/27 00:37:12;;;;;;;36.67;20.95;;;10.50;54.80;;;;;;5013628;28;20026;-70
2021/03/27 00:39:40;;;;;;;39.03;21.45;;;10.50;54.90;;;;;;5013846;28;20437;-74
2021/03/27 00:42:30;;;;;;;44.25;22.40;;;10.50;55.00;;;;;;5013809;28;20391;-70
2021/03/27 00:45:11;;;;;;;41.60;21.05;;;10.50;55.20;;;;;;5008638;28;20132;-71
2021/03/27 00:47:41;;;;;;;39.85;22.75;;;10.40;55.20;;;;;;5013418;28;20376;-70
2021/03/27 00:50:22;;;;;;;42.17;20.88;;;10.40;55.30;;;;;;5013518;28;20018;-70
2021/03/27 00:52:51;;;;;;;46.83;22.58;;;10.40;55.50;;;;;;5013283;28;20123;-70
2021/03/27 00:55:41;;;;;;;40.42;22.45;;;10.40;55.60;;;;;;5013747;28;20033;-70
2021/03/27 00:58:15;;;;;;;40.45;21.40;;;10.40;55.80;;;;;;5012034;28;20026;-71
2021/03/27 01:00:47;;;;;;;37.08;20.92;;;10.40;55.80;;;;;;5012749;28;20112;-71
2021/03/27 01:03:27;;;;;;;37.22;22.05;;;10.40;55.80;;;;;;5013363;28;20037;-70
2021/03/27 01:05:54;;;;;;;41.95;21.58;;;10.30;55.90;;;;;;5013269;28;20037;-70
2021/03/27 01:08:23;;;;;;;42.55;22.13;;;10.30;55.80;;;;;;5013245;28;20045;-70
2021/03/27 01:11:05;;;;;;;40.92;22.33;;;10.30;55.90;;;;;;5013210;28;20034;-71
2021/03/27 01:13:53;;;;;;;43.22;23.33;;;10.30;56.00;;;;;;5013286;28;20029;-71
2021/03/27 01:16:27;;;;;;;36.20;21.58;;;10.30;56.10;;;;;;5013209;28;20448;-71
2021/03/27 01:19:00;;;;;;;39.30;21.70;;;10.30;56.10;;;;;;5013054;28;20037;-71
2021/03/27 01:21:33;;;;;;;42.75;22.95;;;10.20;56.10;;;;;;5011760;28;20033;-70
2021/03/27 01:24:02;;;;;;;38.83;22.05;;;10.20;56.20;;;;;;5013008;28;20033;-71
2021/03/27 01:26:38;;;;;;;40.58;22.27;;;10.20;56.20;;;;;;5013094;28;20044;-70
2021/03/27 01:29:07;;;;;;;41.92;22.60;;;10.20;56.30;;;;;;5013034;28;20018;-70
2021/03/27 01:31:38;;;;;;;45.03;23.73;;;10.20;56.30;;;;;;5013111;28;20034;-71
2021/03/27 01:34:20;;;;;;;40.28;22.77;;;10.20;56.30;;;;;;5012625;28;20486;-71
2021/03/27 01:37:20;;;;;;;41.70;23.23;;;10.10;56.50;;;;;;5012418;28;20356;-71
2021/03/27 01:40:19;;;;;;;40.17;23.25;;;10.10;56.40;;;;;;5012864;28;20053;-70
2021/03/27 01:42:54;;;;;;;45.05;23.23;;;10.10;56.50;;;;;;5012799;28;20212;-71
2021/03/27 01:45:52;;;;;;;44.90;23.67;;;10.10;56.60;;;;;;5011747;28;20144;-71
2021/03/27 01:48:21;;;;;;;45.95;24.02;;;10.10;56.70;;;;;;5013090;28;20049;-70
2021/03/27 01:51:02;;;;;;;40.15;24.35;;;10.10;56.70;;;;;;5012187;28;20032;-70
2021/03/27 01:54:15;;;;;;;39.70;23.30;;;10.10;56.80;;;;;;5013682;28;20471;-70
2021/03/27 01:56:49;;;;;;;40.08;23.20;;;10.10;56.80;;;;;;5012583;28;20038;-70
2021/03/27 01:59:23;;;;;;;44.13;23.60;;;10.10;56.70;;;;;;5016531;28;20113;-70
2021/03/27 02:01:57;;;;;;;46.50;24.17;;;10.10;56.70;;;;;;5016003;28;20129;-71
2021/03/27 02:04:30;;;;;;;42.45;23.42;;;10.00;56.70;;;;;;5016362;28;20030;-70
2021/03/27 02:07:18;;;;;;;44.78;24.25;;;10.00;56.70;;;;;;5016334;28;20037;-70
2021/03/27 02:09:47;;;;;;;44.47;23.40;;;10.00;57.00;;;;;;5015961;28;20075;-74
2021/03/27 02:12:48;;;;;;;42.30;23.10;;;10.00;56.90;;;;;;5014863;28;20139;-70
2021/03/27 02:15:32;;;;;;;42.53;22.30;;;10.10;57.10;;;;;;5016088;28;20539;-72
2021/03/27 02:18:05;;;;;;;40.70;23.33;;;10.10;56.90;;;;;;5016012;28;20029;-70
2021/03/27 02:21:05;;;;;;;43.30;22.75;;;10.10;56.90;;;;;;5015630;28;20091;-70
2021/03/27 02:23:47;;;;;;;41.00;22.60;;;10.10;56.90;;;;;;5015976;28;20037;-69
2021/03/27 02:26:24;;;;;;;47.95;25.02;;;10.10;56.80;;;;;;5016190;28;20174;-70
2021/03/27 02:29:03;;;;;;;44.13;25.05;;;10.10;57.00;;;;;;5015883;28;20030;-70
2021/03/27 02:31:41;;;;;;;42.42;23.60;;;10.10;57.00;;;;;;5015617;28;20034;-70
2021/03/27 02:34:47;;;;;;;42.55;23.77;;;10.10;57.10;;;;;;5014370;28;20029;-70
2021/03/27 02:37:36;;;;;;;39.85;22.92;;;10.20;57.10;;;;;;5015945;28;20022;-71
2021/03/27 02:40:18;;;;;;;42.03;23.42;;;10.20;57.00;;;;;;5015678;28;20041;-71
2021/03/27 02:43:05;;;;;;;42.55;23.08;;;10.10;56.90;;;;;;5015607;28;20105;-70
2021/03/27 02:45:33;;;;;;;41.55;23.80;;;10.10;56.90;;;;;;5015664;28;20026;-69
2021/03/27 02:48:07;;;;;;;42.28;25.00;;;10.10;57.00;;;;;;5015377;28;20104;-70
2021/03/27 02:50:50;;;;;;;43.08;23.70;;;10.10;57.10;;;;;;5015504;28;20105;-70
2021/03/27 02:53:18;;;;;;;40.50;22.55;;;10.10;57.10;;;;;;5015514;28;20080;-70
2021/03/27 02:55:52;;;;;;;45.60;24.50;;;10.00;57.00;;;;;;5015168;28;20476;-71
2021/03/27 02:58:29;;;;;;;44.30;23.92;;;10.00;57.20;;;;;;5024919;28;20033;-71
2021/03/27 03:01:19;;;;;;;44.92;23.42;;;10.00;57.30;;;;;;5024849;28;20038;-70
2021/03/27 03:03:55;;;;;;;47.85;24.48;;;10.00;57.30;;;;;;5022582;28;20045;-71
2021/03/27 03:06:30;;;;;;;44.40;23.83;;;9.90;57.20;;;;;;5021337;28;20022;-71
2021/03/27 03:09:01;;;;;;;48.10;23.02;;;10.00;57.30;;;;;;5020455;28;20125;-71
2021/03/27 03:11:52;;;;;;;45.60;24.88;;;10.00;57.20;;;;;;5022849;28;20040;-71
2021/03/27 03:14:39;;;;;;;41.80;23.05;;;10.00;57.40;;;;;;5019698;28;20066;-70
2021/03/27 03:17:20;;;;;;;39.80;22.63;;;10.00;57.40;;;;;;5020214;28;20421;-70
2021/03/27 03:20:17;;;;;;;40.53;23.35;;;10.00;57.40;;;;;;5024037;28;20097;-70
2021/03/27 03:23:06;;;;;;;42.50;23.17;;;10.00;57.50;;;;;;5021838;28;20449;-71
2021/03/27 03:25:34;;;;;;;41.75;22.83;;;10.00;57.40;;;;;;5023985;28;20027;-70
2021/03/27 03:28:48;;;;;;;42.83;23.33;;;10.00;57.30;;;;;;5022883;28;20403;-70
2021/03/27 03:31:33;;;;;;;41.42;22.67;;;10.00;57.40;;;;;;4961265;28;20034;-69
2021/03/27 03:34:30;;;;;;;38.35;23.55;;;10.00;57.40;;;;;;5020409;28;20026;-72
2021/03/27 03:37:25;;;;;;;49.50;23.27;;;10.00;57.40;;;;;;5019515;28;20024;-70
2021/03/27 03:40:02;;;;;;;38.80;23.02;;;9.90;57.40;;;;;;5021672;28;20044;-71
2021/03/27 03:42:59;;;;;;;43.70;22.75;;;10.00;57.40;;;;;;5023782;28;20456;-70
2021/03/27 03:45:54;;;;;;;43.97;22.73;;;10.00;57.60;;;;;;5023196;28;20024;-71
2021/03/27 03:48:53;;;;;;;45.25;22.27;;;10.00;57.50;;;;;;5013355;28;20038;-72
2021/03/27 03:51:28;;;;;;;44.70;23.25;;;9.90;57.50;;;;;;5020285;28;20026;-73
2021/03/27 03:54:16;;;;;;;39.35;22.55;;;9.90;57.50;;;;;;5021432;28;20024;-71
2021/03/27 03:57:09;;;;;;;41.22;23.13;;;9.90;57.50;;;;;;5021717;28;20058;-71
2021/03/27 03:59:55;;;;;;;41.05;22.98;;;10.00;57.60;;;;;;5023816;28;20030;-71
2021/03/27 04:02:36;;;;;;;45.03;23.42;;;9.90;57.50;;;;;;5020296;28;20084;-71
2021/03/27 04:05:10;;;;;;;48.72;23.52;;;9.90;57.50;;;;;;5020278;28;20098;-70
2021/03/27 04:07:42;;;;;;;45.97;24.15;;;9.90;57.50;;;;;;5018734;28;20057;-71
2021/03/27 04:10:20;;;;;;;42.05;24.15;;;9.90;57.60;;;;;;5021982;28;20040;-70
2021/03/27 04:13:21;;;;;;;42.22;23.10;;;10.00;57.70;;;;;;5021352;28;20439;-71
2021/03/27 04:16:01;;;;;;;41.40;22.08;;;9.90;57.70;;;;;;5020114;28;20049;-71
2021/03/27 04:18:35;;;;;;;37.45;22.70;;;10.00;57.70;;;;;;5021677;28;20035;-71
2021/03/27 04:21:34;;;;;;;39.78;22.67;;;9.90;57.70;;;;;;5021461;28;20104;-71
2021/03/27 04:24:27;;;;;;;42.10;23.00;;;10.00;57.80;;;;;;5018601;28;20061;-71
2021/03/27 04:27:29;;;;;;;39.88;22.42;;;10.00;57.70;;;;;;5022869;28;20357;-71
2021/03/27 04:30:30;;;;;;;45.75;23.67;;;10.00;57.50;;;;;;5000973;28;20385;-71
2021/03/27 04:33:07;;;;;;;46.92;23.45;;;9.90;57.60;;;;;;5013795;28;20044;-70
2021/03/27 04:35:52;;;;;;;40.83;24.10;;;9.90;57.50;;;;;;5022873;28;20058;-70
2021/03/27 04:38:40;;;;;;;43.40;22.60;;;9.90;57.80;;;;;;5022536;28;20026;-70
2021/03/27 04:41:12;;;;;;;44.28;22.98;;;9.90;57.80;;;;;;5033306;28;20053;-70
2021/03/27 04:43:49;;;;;;;44.40;23.23;;;9.90;57.80;;;;;;5033273;28;20044;-70
2021/03/27 04:46:43;;;;;;;38.70;21.77;;;9.90;57.90;;;;;;5026247;28;20056;-70
2021/03/27 04:49:46;;;;;;;43.05;23.20;;;10.00;57.90;;;;;;5019970;28;20476;-70
2021/03/27 04:52:41;;;;;;;40.53;23.20;;;10.10;57.90;;;;;;5023273;28;20047;-70
2021/03/27 04:55:18;;;;;;;41.42;22.63;;;10.10;57.70;;;;;;5017615;28;20038;-70
2021/03/27 04:58:21;;;;;;;40.72;22.48;;;10.20;57.70;;;;;;5021192;28;20384;-70
2021/03/27 05:01:15;;;;;;;42.97;22.58;;;10.20;57.60;;;;;;5002176;28;20030;-70
2021/03/27 05:03:55;;;;;;;38.50;22.45;;;10.30;57.50;;;;;;5001175;28;20040;-70
2021/03/27 05:06:37;;;;;;;44.47;23.10;;;10.40;57.30;;;;;;5004026;28;20026;-71
2021/03/27 05:09:21;;;;;;;35.65;21.88;;;10.40;57.30;;;;;;5004304;28;20045;-71
2021/03/27 05:12:10;;;;;;;41.97;23.00;;;10.50;57.20;;;;;;5012775;28;20033;-70
2021/03/27 05:15:05;;;;;;;41.63;22.35;;;10.50;57.00;;;;;;5021113;28;20018;-70
2021/03/27 05:17:34;;;;;;;;;;;10.50;56.90;;;;;;5020280;28;20026;-71
2021/03/27 05:20:13;;;;;;;40.03;22.98;;;10.50;56.60;;;;;;5029998;28;20269;-71
2021/03/27 05:23:01;;;;;;;42.08;22.48;;;10.50;56.70;;;;;;5032844;28;20410;-71
2021/03/27 05:25:54;;;;;;;40.63;23.35;;;10.50;56.80;;;;;;5014701;28;20034;-71
2021/03/27 05:28:40;;;;;;;41.22;23.27;;;10.50;56.90;;;;;;5010731;28;20041;-70
2021/03/27 05:31:27;;;;;;;39.00;23.38;;;10.50;56.90;;;;;;5017187;28;20030;-70
2021/03/27 05:34:14;;;;;;;43.03;21.70;;;10.40;56.90;;;;;;5017339;28;20052;-71
2021/03/27 05:37:15;;;;;;;38.88;22.10;;;10.50;57.00;;;;;;5020268;28;20022;-71
2021/03/27 05:39:54;;;;;;;43.78;22.83;;;10.50;56.90;;;;;;5003734;28;20030;-71
2021/03/27 05:42:49;;;;;;;42.90;24.02;;;10.50;56.80;;;;;;5036408;28;20033;-70
2021/03/27 05:45:42;;;;;;;42.92;24.50;;;10.50;56.90;;;;;;5036100;28;20369;-70
2021/03/27 05:48:38;;;;;;;41.20;22.33;;;10.60;56.90;;;;;;5027073;28;20034;-71
2021/03/27 05:51:31;;;;;;;43.22;24.10;;;10.60;56.80;;;;;;5034961;28;20079;-70
2021/03/27 05:54:23;;;;;;;42.95;24.08;;;10.70;56.80;;;;;;5036506;28;20021;-71
2021/03/27 05:57:07;;;;;;;41.78;23.17;;;10.70;56.70;;;;;;5036307;28;20353;-71
2021/03/27 05:59:40;;;;;;;46.83;23.90;;;10.80;56.60;;;;;;5036312;28;20364;-71
2021/03/27 06:02:20;;;;;;;39.88;22.45;;;10.80;56.50;;;;;;5036029;28;20128;-71
2021/03/27 06:04:49;;;;;;;42.50;22.38;;;10.70;56.60;;;;;;5035309;28;20056;-71
2021/03/27 06:07:33;;;;;;;43.72;24.77;;;10.80;56.70;;;;;;5035936;28;20175;-72
2021/03/27 06:10:26;;;;;;;42.70;23.10;;;10.80;56.70;;;;;;5036074;28;20051;-71
2021/03/27 06:13:16;;;;;;;42.58;23.33;;;10.90;56.60;;;;;;5036045;28;20266;-70
2021/03/27 06:16:03;;;;;;;41.38;22.65;;;10.90;56.50;;;;;;5033271;28;20032;-70
2021/03/27 06:18:48;;;;;;;40.25;23.50;;;10.90;56.60;;;;;;4997954;28;20396;-71
2021/03/27 06:21:45;;;;;;;45.20;24.40;;;11.00;56.60;;;;;;5015715;28;20033;-71
2021/03/27 06:24:36;;;;;;;39.15;23.02;;;11.00;56.40;;;;;;4989298;28;20515;-69
2021/03/27 06:27:39;;;;;;;45.08;23.67;;;11.00;56.40;;;;;;4996347;28;20027;-70
2021/03/27 06:30:17;;;;;;;40.72;23.10;;;11.00;56.50;;;;;;4997906;28;20026;-71
2021/03/27 06:33:00;;;;;;;38.92;23.15;;;11.10;56.40;;;;;;5026182;28;20029;-70
2021/03/27 06:35:50;;;;;;;48.35;24.70;;;11.20;56.40;;;;;;5021023;28;20029;-70
2021/03/27 06:38:35;;;;;;;43.53;23.33;;;11.40;56.40;;;;;;5032765;28;20029;-70
2021/03/27 06:41:31;;;;;;;48.50;24.77;;;11.40;56.20;;;;;;5024976;28;20030;-71
2021/03/27 06:44:32;;;;;;;42.28;23.92;;;11.50;56.00;;;;;;5023796;28;20709;-73
2021/03/27 06:47:28;;;;;;;47.38;24.75;;;11.60;56.00;;;;;;4991968;28;20037;-71
2021/03/27 06:49:56;;;;;;;42.00;25.00;;;11.70;55.90;;;;;;5025510;28;20040;-70
2021/03/27 06:52:35;;;;;;;46.53;25.83;;;11.70;55.80;;;;;;5024029;28;20028;-71
2021/03/27 06:55:30;;;;;;;46.33;24.30;;;11.80;55.70;;;;;;5022545;28;20013;-72
2021/03/27 06:58:29;;;;;;;44.67;25.95;;;11.90;55.70;;;;;;5019319;28;20072;-76
2021/03/27 07:01:20;;;;;;;42.55;25.35;;;11.90;55.70;;;;;;5022750;28;20447;-70
2021/03/27 07:04:04;;;;;;;44.58;24.30;;;12.10;55.80;;;;;;5023547;28;20106;-70
2021/03/27 07:06:41;;;;;;;41.05;24.60;;;12.20;55.70;;;;;;5024312;28;20030;-72
2021/03/27 07:09:44;;;;;;;42.60;24.50;;;12.30;55.50;;;;;;5024595;28;20100;-70
2021/03/27 07:12:34;;;;;;;43.38;25.52;;;12.40;55.40;;;;;;5024389;28;20084;-70
2021/03/27 07:15:34;;;;;;;45.78;24.15;;;12.50;55.00;;;;;;5021587;28;20069;-70
2021/03/27 07:18:34;;;;;;;44.85;23.90;;;12.70;55.00;;;;;;5022882;28;20018;-71
2021/03/27 07:21:32;;;;;;;39.95;23.80;;;12.80;54.80;;;;;;5019728;28;20050;-71
2021/03/27 07:24:20;;;;;;;39.70;23.50;;;12.80;54.50;;;;;;5020175;28;20041;-71
2021/03/27 07:27:05;;;;;;;37.08;23.67;;;13.00;54.40;;;;;;5019650;28;20076;-72
2021/03/27 07:29:49;;;;;;;37.97;22.58;;;13.10;54.10;;;;;;5054588;28;20052;-72
2021/03/27 07:32:14;;;;;;;40.95;23.20;;;13.30;53.90;;;;;;5021673;28;20483;-71
2021/03/27 07:34:45;;;;;;;39.72;22.70;;;13.40;53.60;;;;;;5023138;28;20033;-72
2021/03/27 07:37:24;;;;;;;43.83;23.08;;;13.50;53.50;;;;;;5023092;28;20026;-71
2021/03/27 07:40:14;;;;;;;36.20;21.20;;;13.60;53.20;;;;;;5014591;28;20034;-71
2021/03/27 07:43:10;;;;;;;38.53;22.15;;;13.80;53.00;;;;;;5013139;28;20038;-71
2021/03/27 07:45:48;;;;;;;37.47;20.90;;;14.00;53.00;;;;;;5014460;28;20061;-72
2021/03/27 07:48:58;;;;;;;35.33;21.05;;;14.10;52.40;;;;;;5031834;28;20029;-71
2021/03/27 07:51:38;;;;;;;38.33;20.30;;;14.30;52.10;;;;;;5008606;28;20041;-71
2021/03/27 07:54:22;;;;;;;31.60;19.27;;;14.50;51.60;;;;;;5023896;28;20022;-71
2021/03/27 07:57:28;;;;;;;38.25;21.17;;;14.70;51.30;;;;;;5021273;28;20471;-70
2021/03/27 08:00:14;;;;;;;32.28;19.40;;;14.90;50.90;;;;;;5023654;28;20429;-71
2021/03/27 08:02:54;;;;;;;31.08;19.10;;;15.10;50.50;;;;;;5019176;28;20125;-72
2021/03/27 08:05:44;;;;;;;31.38;19.20;;;15.30;50.20;;;;;;5019250;28;20018;-70
2021/03/27 08:08:29;;;;;;;31.75;19.23;;;15.60;49.70;;;;;;5021384;28;20026;-71
2021/03/27 08:11:17;;;;;;;29.20;18.23;;;15.80;49.30;;;;;;5022771;28;20044;-71
2021/03/27 08:14:01;;;;;;;29.13;17.45;;;16.10;48.90;;;;;;5019904;28;20165;-72
2021/03/27 08:16:38;;;;;;;26.50;16.80;;;16.40;48.30;;;;;;5020564;28;20029;-72
2021/03/27 08:19:19;;;;;;;29.38;17.85;;;16.70;48.00;;;;;;5019682;28;20018;-70
2021/03/27 08:22:07;;;;;;;29.02;17.95;;;17.10;47.30;;;;;;5019957;28;20034;-71
2021/03/27 08:24:36;;;;;;;26.75;17.50;;;17.40;46.70;;;;;;5022320;28;20107;-73
2021/03/27 08:27:23;;;;;;;30.83;17.45;;;17.80;46.10;;;;;;5019174;28;20033;-69
2021/03/27 08:30:31;;;;;;;25.80;16.63;;;18.20;45.70;;;;;;5019845;28;20022;-72
2021/03/27 08:33:28;;;;;;;24.65;16.27;;;18.90;44.90;;;;;;5013766;28;20173;-70
2021/03/27 08:36:20;;;;;;;28.42;17.95;;;19.70;44.60;;;;;;5021052;28;20021;-73
2021/03/27 08:39:16;;;;;;;25.52;16.58;;;20.60;43.70;;;;;;5018216;28;20368;-72
2021/03/27 08:42:04;;;;;;;22.23;15.80;;;21.50;42.60;;;;;;5017591;28;20121;-71
2021/03/27 08:44:38;;;;;;;24.00;15.95;;;22.40;41.40;;;;;;5021726;28;20029;-71
2021/03/27 08:47:35;;;;;;;;;;;23.30;40.30;;;;;;5019657;28;20026;-72
2021/03/27 08:50:30;;;;;;;29.33;18.05;;;24.10;41.00;;;;;;5021909;28;19912;-72
2021/03/27 08:53:25;;;;;;;23.67;15.85;;;25.10;38.20;;;;;;5021866;28;20464;-72
2021/03/27 08:55:50;;;;;;;;;;;25.90;36.80;;;;;;5025117;28;20033;-73
2021/03/27 08:58:44;;;;;;;22.05;15.88;;;26.60;38.50;;;;;;5021416;28;19919;-71
2021/03/27 09:01:25;;;;;;;22.08;16.20;;;27.20;35.80;;;;;;5028424;28;20042;-71
2021/03/27 09:04:21;;;;;;;22.90;15.27;;;27.90;34.60;;;;;;5032774;28;20112;-71
2021/03/27 09:07:11;;;;;;;20.38;15.25;;;28.50;33.60;;;;;;5022528;28;20026;-71
2021/03/27 09:10:02;;;;;;;21.35;15.98;;;28.90;32.80;;;;;;5022971;28;20053;-73
2021/03/27 09:12:39;;;;;;;19.85;15.73;;;29.50;32.30;;;;;;5020136;28;20438;-72
2021/03/27 09:15:39;;;;;;;20.98;15.77;;;30.10;31.70;;;;;;5019822;28;20037;-71
2021/03/27 09:18:41;;;;;;;19.58;14.65;;;30.40;31.00;;;;;;5002820;28;20483;-72
2021/03/27 09:21:34;;;;;;;18.42;14.85;;;30.80;30.60;;;;;;5003736;28;20079;-71
2021/03/27 09:24:07;;;;;;;19.07;14.77;;;31.40;30.20;;;;;;5003528;28;20057;-76
2021/03/27 09:27:08;;;;;;;23.48;14.88;;;31.80;29.90;;;;;;5003288;28;20037;-71
2021/03/27 09:30:07;;;;;;;16.58;13.55;;;32.00;29.70;;;;;;5036333;28;20042;-70
2021/03/27 09:33:07;;;;;;;17.60;14.50;;;32.30;29.20;;;;;;5014190;28;20038;-71
2021/03/27 09:35:57;;;;;;;19.58;14.88;;;32.60;29.00;;;;;;5012622;28;20054;-71
2021/03/27 09:38:38;;;;;;;18.00;14.15;;;32.80;28.60;;;;;;5024224;28;20505;-70
2021/03/27 09:41:16;;;;;;;18.73;14.10;;;32.90;28.40;;;;;;5012866;28;20073;-72
2021/03/27 09:44:19;;;;;;;20.83;14.15;;;33.00;28.10;;;;;;5018303;28;20202;-72
2021/03/27 09:47:04;;;;;;;18.17;14.27;;;33.20;28.00;;;;;;5021187;28;20098;-71
2021/03/27 09:49:54;;;;;;;15.43;13.60;;;33.50;28.00;;;;;;5020594;28;20352;-71
2021/03/27 09:52:26;;;;;;;19.83;14.35;;;33.80;27.60;;;;;;5017523;28;20156;-72
2021/03/27 09:55:33;;;;;;;19.13;14.18;;;34.00;27.40;;;;;;5020677;28;20021;-72
2021/03/27 09:58:10;;;;;;;17.85;13.23;;;34.20;27.10;;;;;;5022248;28;20108;-72
2021/03/27 10:00:52;;;;;;;16.52;13.57;;;34.00;26.90;;;;;;5022145;28;20072;-72
2021/03/27 10:03:56;;;;;;;20.02;13.20;;;33.70;26.80;;;;;;5022332;28;20102;-71
2021/03/27 10:06:29;;;;;;;16.65;14.05;;;32.60;26.60;;;;;;5030522;28;20033;-71
2021/03/27 10:09:05;;;;;;;17.77;14.20;;;31.40;26.80;;;;;;5020193;28;20030;-71
2021/03/27 10:11:34;;;;;;;18.33;14.20;;;30.50;27.10;;;;;;5020542;28;20026;-72
2021/03/27 10:14:18;;;;;;;19.30;14.10;;;30.20;27.50;;;;;;5016162;28;20022;-71
2021/03/27 10:16:50;;;;;;;42.00;18.00;;;29.70;27.40;;;;;;5023345;28;20036;-71
2021/03/27 10:19:19;;;;;;;21.30;14.45;;;29.30;27.70;;;;;;5025512;28;20019;-70
2021/03/27 10:21:59;;;;;;;21.50;14.02;;;29.30;28.00;;;;;;5024521;28;20067;-71
2021/03/27 10:24:57;;;;;;;19.45;14.15;;;29.50;27.80;;;;;;5017822;28;20044;-71
2021/03/27 10:27:44;;;;;;;20.38;13.73;;;29.00;27.50;;;;;;5017786;28;20030;-70
2021/03/27 10:30:23;;;;;;;17.85;13.68;;;28.20;27.80;;;;;;5023475;28;20032;-71
2021/03/27 10:32:48;;;;;;;19.65;13.05;;;27.60;28.00;;;;;;5022959;28;20038;-72
2021/03/27 10:35:39;;;;;;;24.08;14.90;;;28.10;29.00;;;;;;5023368;28;20431;-70
2021/03/27 10:38:05;;;;;;;17.98;13.68;;;29.40;28.20;;;;;;5021810;28;20030;-71
2021/03/27 10:40:39;;;;;;;15.10;12.68;;;30.30;27.90;;;;;;5023640;28;20475;-71
2021/03/27 10:43:34;;;;;;;20.30;12.65;;;30.20;27.10;;;;;;5021520;28;20033;-73
2021/03/27 10:46:30;;;;;;;17.30;12.88;;;29.40;26.80;;;;;;5024625;28;20044;-72
2021/03/27 10:49:09;;;;;;;16.60;11.45;;;28.50;27.00;;;;;;5024666;28;20053;-72
2021/03/27 10:51:54;;;;;;;17.30;12.30;;;28.10;27.30;;;;;;5023804;28;20030;-71
2021/03/27 10:54:22;;;;;;;16.77;13.20;;;28.90;27.50;;;;;;5024349;28;20037;-72
2021/03/27 10:57:03;;;;;;;17.15;12.20;;;29.70;27.20;;;;;;5023807;28;20030;-71
2021/03/27 10:59:39;;;;;;;17.15;13.18;;;29.90;27.00;;;;;;5022382;28;20125;-72
2021/03/27 11:02:13;;;;;;;17.63;12.90;;;29.60;26.90;;;;;;5017764;28;20045;-71
2021/03/27 11:04:57;;;;;;;21.35;14.20;;;30.00;27.40;;;;;;5020322;28;20021;-71
2021/03/27 11:07:47;;;;;;;18.00;13.82;;;31.00;27.50;;;;;;5021493;28;20108;-70
2021/03/27 11:10:30;;;;;;;18.08;13.75;;;31.00;26.80;;;;;;5022716;28;20386;-71
2021/03/27 11:13:26;;;;;;;16.67;13.45;;;30.10;26.40;;;;;;5024460;28;20419;-71
2021/03/27 11:16:20;;;;;;;17.35;13.55;;;29.30;26.80;;;;;;5023927;28;20076;-72
2021/03/27 11:19:20;;;;;;;19.95;13.10;;;28.80;26.90;;;;;;5022563;28;20026;-71
2021/03/27 11:22:10;;;;;;;26.52;12.48;;;28.10;26.90;;;;;;5023092;28;20112;-70
2021/03/27 11:24:38;;;;;;;18.08;11.65;;;27.40;26.90;;;;;;5023983;28;20025;-71
2021/03/27 11:27:45;;;;;;;13.75;11.52;;;27.00;27.00;;;;;;5023061;28;20026;-71
2021/03/27 11:30:25;;;;;;;15.70;12.18;;;26.90;27.30;;;;;;5023824;28;20029;-70
2021/03/27 11:33:18;;;;;;;16.40;12.50;;;27.30;27.10;;;;;;5023299;28;20088;-71
2021/03/27 11:35:53;;;;;;;15.88;11.55;;;27.80;26.80;;;;;;5005290;28;20539;-72
2021/03/27 11:38:23;;;;;;;17.48;11.93;;;29.20;26.70;;;;;;5019105;28;20468;-71
2021/03/27 11:41:21;;;;;;;19.35;11.70;;;29.40;26.00;;;;;;5021234;28;20029;-72
2021/03/27 11:44:12;;;;;;;21.45;13.20;;;28.70;25.60;;;;;;5021723;28;20033;-70
2021/03/27 11:46:39;;;;;;;17.40;12.77;;;27.80;25.70;;;;;;5023917;28;20034;-70
2021/03/27 11:49:08;;;;;;;16.13;12.43;;;27.40;26.20;;;;;;5021117;28;20379;-71
2021/03/27 11:51:52;;;;;;;16.50;12.85;;;28.10;26.70;;;;;;5023447;28;20104;-70
2021/03/27 11:54:55;;;;;;;17.58;13.23;;;28.90;26.30;;;;;;5021787;28;20021;-70
2021/03/27 11:57:34;;;;;;;20.05;13.38;;;28.70;26.10;;;;;;5022069;28;20100;-71
2021/03/27 12:03:28;;;;;;;20.42;13.25;;;28.30;26.50;;;;;;5030722;28;20056;-72
2021/03/27 12:06:30;;;;;;;22.33;14.32;;;29.50;26.70;;;;;;5021844;28;20022;-71
2021/03/27 12:09:24;;;;;;;18.15;14.10;;;30.90;26.40;;;;;;5026830;28;20017;-71
2021/03/27 12:11:53;;;;;;;19.43;14.33;;;32.30;26.20;;;;;;5033826;28;20079;-72
2021/03/27 12:14:30;;;;;;;20.67;14.43;;;33.30;25.90;;;;;;5033664;28;20255;-71
2021/03/27 12:17:18;;;;;;;17.27;13.98;;;33.90;25.50;;;;;;5020928;28;20030;-72
2021/03/27 12:19:58;;;;;;;19.95;15.77;;;33.80;25.10;;;;;;5013514;28;20026;-71
2021/03/27 12:22:52;;;;;;;24.33;16.25;;;32.50;25.00;;;;;;5030247;28;20033;-71
2021/03/27 12:25:39;;;;;;;19.07;15.77;;;30.90;25.20;;;;;;5017577;28;20045;-72
2021/03/27 12:28:13;;;;;;;18.55;15.13;;;29.40;25.60;;;;;;5021023;28;20427;-72
2021/03/27 12:30:55;;;;;;;20.83;16.60;;;28.10;26.00;;;;;;5014667;28;20384;-71
2021/03/27 12:33:34;;;;;;;24.55;17.45;;;27.00;26.40;;;;;;5023103;28;20056;-72
2021/03/27 12:36:24;;;;;;;23.05;16.88;;;26.10;26.90;;;;;;5017631;28;20357;-72
2021/03/27 12:39:20;;;;;;;26.45;18.67;;;25.40;27.30;;;;;;5018090;28;20463;-71
2021/03/27 12:41:49;;;;;;;21.50;16.10;;;25.00;27.60;;;;;;5013328;28;20041;-71
2021/03/27 12:44:28;;;;;;;26.40;16.23;;;24.40;27.90;;;;;;5013297;28;20379;-71
2021/03/27 12:47:17;;;;;;;23.23;17.35;;;23.80;28.30;;;;;;5013343;28;20464;-71
2021/03/27 12:50:09;;;;;;;26.88;16.50;;;23.20;28.60;;;;;;5016552;28;20149;-71
2021/03/27 12:53:13;;;;;;;30.73;17.02;;;22.70;29.00;;;;;;5033118;28;20048;-70
2021/03/27 12:56:09;;;;;;;40.13;17.30;;;22.30;29.30;;;;;;5033055;28;20405;-71
2021/03/27 12:58:52;;;;;;;23.00;15.77;;;22.00;29.60;;;;;;5026449;28;20036;-71
2021/03/27 13:01:45;;;;;;;22.63;16.80;;;21.90;29.80;;;;;;5022724;28;20045;-71
2021/03/27 13:04:51;;;;;;;26.95;16.83;;;21.80;29.90;;;;;;5006451;28;20052;-72
2021/03/27 13:07:36;;;;;;;30.33;18.00;;;21.90;30.00;;;;;;5021814;28;20038;-71
2021/03/27 13:10:10;;;;;;;23.60;16.42;;;21.80;30.00;;;;;;5023323;28;20440;-71
2021/03/27 13:12:54;;;;;;;25.48;16.30;;;21.80;30.10;;;;;;5023216;28;20034;-70
2021/03/27 13:15:49;;;;;;;22.55;16.15;;;21.70;30.10;;;;;;5023583;28;20026;-72
2021/03/27 13:18:33;;;;;;;25.45;16.55;;;21.50;30.30;;;;;;5021642;28;20029;-71
2021/03/27 13:21:11;;;;;;;25.48;16.90;;;21.40;30.60;;;;;;5022404;28;20040;-72
2021/03/27 13:24:00;;;;;;;24.42;17.25;;;21.20;30.60;;;;;;5022384;28;20045;-73
2021/03/27 13:26:32;;;;;;;23.20;16.95;;;21.20;30.80;;;;;;5021593;28;20025;-71
2021/03/27 13:29:09;;;;;;;31.00;18.27;;;21.30;31.00;;;;;;5030495;28;20037;-73
2021/03/27 13:31:50;;;;;;;23.15;16.80;;;22.00;31.20;;;;;;5031807;28;20021;-71
2021/03/27 13:34:24;;;;;;;22.27;16.92;;;23.20;30.80;;;;;;4992727;28;20034;-73
2021/03/27 13:36:59;;;;;;;26.65;17.80;;;24.40;30.10;;;;;;4992422;28;20443;-71
2021/03/27 13:39:38;;;;;;;26.65;17.58;;;25.70;29.40;;;;;;4992733;28;20411;-70
2021/03/27 13:42:25;;;;;;;27.67;18.02;;;26.60;29.10;;;;;;4992391;28;20491;-72
2021/03/27 13:45:00;;;;;;;23.55;17.33;;;27.60;28.50;;;;;;5014298;28;20084;-70
2021/03/27 13:47:46;;;;;;;30.80;18.92;;;28.40;28.20;;;;;;5021838;28;20468;-72
2021/03/27 13:50:39;;;;;;;24.40;17.92;;;29.10;27.70;;;;;;5022106;28;20025;-72
2021/03/27 13:53:04;;;;;;;23.08;17.15;;;28.80;27.10;;;;;;5023837;28;20034;-71
2021/03/27 13:55:36;;;;;;;23.30;17.20;;;28.10;27.10;;;;;;5016723;28;20033;-72
2021/03/27 13:58:30;;;;;;;24.13;17.60;;;27.70;27.20;;;;;;5015108;28;20030;-71